createdAt,value
2023-02-10T00:04:45.559Z,-5.35
2023-02-10T00:09:49.911Z,-5.40
2023-02-10T00:14:52.360Z,-5.41
2023-02-10T00:19:54.948Z,-5.52
2023-02-10T00:24:57.426Z,-5.49
2023-02-10T00:30:00.002Z,-5.63
2023-02-10T00:35:02.753Z,-5.64
2023-02-10T00:40:06.583Z,-5.56
2023-02-10T00:45:10.211Z,-5.48
2023-02-10T00:50:12.870Z,-5.45
2023-02-10T00:55:15.713Z,-5.57
2023-02-10T01:00:18.304Z,-5.58
2023-02-10T01:05:21.918Z,-5.62
2023-02-10T01:10:25.541Z,-5.74
2023-02-10T01:15:28.296Z,-5.62
2023-02-10T01:20:30.891Z,-5.47
2023-02-10T01:25:35.512Z,-5.60
2023-02-10T01:30:38.335Z,-5.59
2023-02-10T01:35:41.034Z,-5.63
2023-02-10T01:40:43.789Z,-5.84
2023-02-10T01:45:47.588Z,-5.83
2023-02-10T01:50:55.557Z,-5.68
2023-02-10T01:56:02.539Z,-5.72
2023-02-10T02:01:05.296Z,-5.84
2023-02-10T02:06:09.146Z,-5.81
2023-02-10T02:11:17.604Z,-5.80
2023-02-10T02:16:53.267Z,-5.87
2023-02-10T02:22:05.177Z,-5.87
2023-02-10T02:27:41.084Z,-5.98
2023-02-10T02:32:45.516Z,-5.92
2023-02-10T02:37:49.149Z,-5.94
2023-02-10T02:42:51.894Z,-5.88
2023-02-10T02:48:17.257Z,-5.96
2023-02-10T02:53:44.577Z,-5.98
2023-02-10T02:58:58.386Z,-6.00
2023-02-10T03:04:02.312Z,-6.04
2023-02-10T03:09:05.422Z,-6.00
2023-02-10T03:14:08.220Z,-6.10
2023-02-10T03:19:11.198Z,-6.17
2023-02-10T03:24:14.386Z,-6.19
2023-02-10T03:29:17.673Z,-6.03
2023-02-10T03:34:20.611Z,-6.08
2023-02-10T03:39:23.322Z,-6.03
2023-02-10T03:44:26.068Z,-6.10
2023-02-10T03:49:28.752Z,-5.97
2023-02-10T03:54:32.931Z,-6.07
2023-02-10T03:59:35.394Z,-6.12
2023-02-10T04:04:38.234Z,-6.13
2023-02-10T04:09:41.060Z,-6.13
2023-02-10T04:14:43.655Z,-6.04
2023-02-10T04:19:46.387Z,-6.12
2023-02-10T04:24:48.953Z,-6.07
2023-02-10T04:29:51.400Z,-6.05
2023-02-10T04:34:54.136Z,-5.77
2023-02-10T04:39:56.934Z,-4.91
2023-02-10T04:45:00.325Z,-3.94
2023-02-10T04:50:03.025Z,-3.00
2023-02-10T04:55:06.299Z,-2.97
2023-02-10T05:00:09.352Z,-2.76
2023-02-10T05:05:13.356Z,-2.44
2023-02-10T05:10:16.140Z,-2.07
2023-02-10T05:15:19.135Z,-1.50
2023-02-10T05:20:22.504Z,-0.94
2023-02-10T05:25:25.531Z,-0.71
2023-02-10T05:30:28.098Z,0.33
2023-02-10T05:35:30.905Z,0.90
2023-02-10T05:40:33.747Z,1.33
2023-02-10T05:45:37.478Z,1.80
2023-02-10T05:50:41.271Z,2.29
2023-02-10T05:55:50.607Z,2.72
2023-02-10T06:00:53.951Z,3.26
2023-02-10T06:05:56.813Z,3.29
2023-02-10T06:10:59.900Z,3.85
2023-02-10T06:16:02.857Z,4.32
2023-02-10T06:21:05.829Z,4.65
2023-02-10T06:26:09.558Z,6.16
2023-02-10T06:31:12.298Z,6.72
2023-02-10T06:36:15.465Z,7.18
2023-02-10T06:41:22.552Z,7.68
2023-02-10T06:46:27.112Z,8.29
2023-02-10T06:51:30.732Z,8.27
2023-02-10T06:56:33.432Z,8.66
2023-02-10T07:01:36.313Z,8.73
2023-02-10T07:06:40.182Z,9.09
2023-02-10T07:11:44.321Z,9.54
2023-02-10T07:16:47.489Z,9.46
2023-02-10T07:21:51.540Z,9.89
2023-02-10T07:26:55.566Z,10.21
2023-02-10T07:32:08.180Z,10.59
2023-02-10T07:37:10.801Z,10.39
2023-02-10T07:42:13.364Z,10.37
2023-02-10T07:47:36.217Z,9.98
2023-02-10T07:52:38.810Z,9.55
2023-02-10T07:57:42.605Z,9.13
2023-02-10T08:02:45.453Z,10.06
2023-02-10T08:07:48.559Z,10.55
2023-02-10T08:12:51.116Z,10.45
2023-02-10T08:17:53.700Z,10.76
2023-02-10T08:22:57.335Z,10.61
2023-02-10T08:28:00.956Z,10.87
2023-02-10T08:33:04.185Z,11.37
2023-02-10T08:38:07.957Z,11.23
2023-02-10T08:43:14.091Z,11.37
2023-02-10T08:48:17.218Z,11.07
2023-02-10T08:53:20.607Z,11.86
2023-02-10T08:58:30.909Z,12.09
2023-02-10T09:03:38.369Z,12.24
2023-02-10T09:08:43.392Z,12.20
2023-02-10T09:13:46.951Z,12.32
2023-02-10T09:18:49.819Z,13.12
2023-02-10T09:23:53.230Z,13.18
2023-02-10T09:28:56.354Z,12.90
2023-02-10T09:33:59.167Z,12.96
2023-02-10T09:39:02.058Z,12.82
2023-02-10T09:44:17.863Z,13.23
2023-02-10T09:49:39.040Z,13.25
2023-02-10T09:54:43.812Z,13.54
2023-02-10T09:59:49.346Z,13.76
2023-02-10T10:04:53.954Z,13.44
2023-02-10T10:10:09.150Z,13.49
2023-02-10T10:15:20.290Z,13.21
2023-02-10T10:20:49.597Z,13.23
2023-02-10T10:26:21.464Z,13.22
2023-02-10T10:31:40.087Z,12.95
2023-02-10T10:36:52.355Z,13.12
2023-02-10T10:41:57.020Z,12.63
2023-02-10T10:47:09.775Z,12.73
2023-02-10T10:52:28.913Z,12.05
2023-02-10T10:57:32.959Z,11.92
2023-02-10T11:02:37.659Z,12.66
2023-02-10T11:07:43.178Z,12.07
2023-02-10T11:12:48.884Z,11.84
2023-02-10T11:17:52.079Z,12.53
2023-02-10T11:23:02.120Z,11.86
2023-02-10T11:28:17.314Z,11.29
2023-02-10T11:33:24.546Z,11.40
2023-02-10T11:38:28.627Z,11.27
2023-02-10T11:43:46.999Z,10.78
2023-02-10T11:49:00.977Z,10.78
2023-02-10T11:54:19.997Z,10.12
2023-02-10T11:59:41.167Z,10.08
2023-02-10T12:04:46.704Z,9.35
2023-02-10T12:09:52.514Z,8.90
2023-02-10T12:15:11.162Z,8.45
2023-02-10T12:20:41.799Z,8.05
2023-02-10T12:26:02.890Z,7.67
2023-02-10T12:31:47.805Z,7.44
2023-02-10T12:38:06.502Z,7.06
2023-02-10T12:43:48.226Z,6.64
2023-02-10T12:49:27.500Z,6.38
2023-02-10T12:55:26.073Z,5.76
2023-02-10T13:01:32.602Z,4.50
2023-02-10T13:06:53.952Z,4.33
2023-02-10T13:12:33.101Z,3.92
2023-02-10T13:19:02.655Z,3.59
2023-02-10T13:24:32.046Z,3.34
2023-02-10T13:30:16.550Z,2.88
2023-02-10T13:35:25.949Z,2.69
2023-02-10T13:40:53.806Z,2.26
2023-02-10T13:45:58.468Z,1.82
2023-02-10T13:51:09.745Z,1.19
2023-02-10T13:56:26.794Z,0.59
2023-02-10T14:01:43.335Z,0.27
2023-02-10T14:06:53.137Z,-0.05
2023-02-10T14:12:02.403Z,-0.47
2023-02-10T14:17:31.377Z,-0.69
2023-02-10T14:22:40.172Z,-0.95
2023-02-10T14:27:50.943Z,-1.21
2023-02-10T14:32:56.350Z,-1.37
2023-02-10T14:38:00.759Z,-1.55
2023-02-10T14:43:04.186Z,-1.68
2023-02-10T14:48:07.939Z,-1.76
2023-02-10T14:53:20.408Z,-1.86
2023-02-10T14:58:26.063Z,-1.86
2023-02-10T15:03:32.821Z,-1.88
2023-02-10T15:08:51.154Z,-1.87
2023-02-10T15:13:53.965Z,-1.94
2023-02-10T15:18:56.657Z,-2.02
2023-02-10T15:24:00.740Z,-2.07
2023-02-10T15:29:12.966Z,-2.14
2023-02-10T15:34:26.867Z,-2.21
2023-02-10T15:39:34.643Z,-2.34
2023-02-10T15:44:40.885Z,-2.47
2023-02-10T15:49:46.666Z,-2.57
2023-02-10T15:54:53.739Z,-2.67
2023-02-10T15:59:56.371Z,-2.78
2023-02-10T16:05:01.864Z,-2.89
2023-02-10T16:10:06.913Z,-2.95
2023-02-10T16:15:14.862Z,-3.07
2023-02-10T16:20:21.696Z,-3.15
2023-02-10T16:25:28.689Z,-3.20
2023-02-10T16:30:34.148Z,-3.20
2023-02-10T16:35:37.132Z,-3.16
2023-02-10T16:40:40.950Z,-3.27
2023-02-10T16:45:43.574Z,-3.26
2023-02-10T16:50:47.258Z,-3.32
2023-02-10T16:55:50.527Z,-3.42
2023-02-10T17:00:55.163Z,-3.44
2023-02-10T17:06:00.673Z,-3.44
2023-02-10T17:11:03.640Z,-3.54
2023-02-10T17:16:06.713Z,-3.68
2023-02-10T17:21:09.435Z,-3.74
2023-02-10T17:26:12.712Z,-3.76
2023-02-10T17:31:18.858Z,-3.77
2023-02-10T17:36:25.980Z,-3.83
2023-02-10T17:41:30.702Z,-3.94
2023-02-10T17:46:33.585Z,-3.94
2023-02-10T17:51:36.547Z,-4.01
2023-02-10T17:56:39.321Z,-4.04
2023-02-10T18:01:42.691Z,-3.95
2023-02-10T18:06:45.597Z,-4.06
2023-02-10T18:11:48.210Z,-4.15
2023-02-10T18:16:50.984Z,-4.20
2023-02-10T18:21:54.337Z,-4.28
2023-02-10T18:26:56.905Z,-4.33
2023-02-10T18:31:59.856Z,-4.48
2023-02-10T18:37:02.745Z,-4.56
2023-02-10T18:42:09.142Z,-4.57
2023-02-10T18:47:11.763Z,-4.61
2023-02-10T18:52:14.456Z,-4.66
2023-02-10T18:57:17.222Z,-4.71
2023-02-10T19:02:20.111Z,-4.75
2023-02-10T19:07:22.921Z,-4.83
2023-02-10T19:12:26.944Z,-4.83
2023-02-10T19:17:29.776Z,-4.95
2023-02-10T19:22:32.463Z,-4.99
2023-02-10T19:27:35.536Z,-5.04
2023-02-10T19:32:38.270Z,-5.13
2023-02-10T19:37:41.726Z,-5.16
2023-02-10T19:42:44.506Z,-5.19
2023-02-10T19:47:47.330Z,-5.28
2023-02-10T19:52:50.050Z,-5.35
2023-02-10T19:57:52.845Z,-5.43
2023-02-10T20:02:55.744Z,-5.41
2023-02-10T20:07:58.516Z,-5.47
2023-02-10T20:13:01.079Z,-5.40
2023-02-10T20:18:03.676Z,-5.53
2023-02-10T20:23:06.574Z,-5.56
2023-02-10T20:28:09.246Z,-5.52
2023-02-10T20:33:12.047Z,-5.47
2023-02-10T20:38:14.628Z,-5.46
2023-02-10T20:43:17.201Z,-5.63
2023-02-10T20:48:19.935Z,-5.71
2023-02-10T20:53:22.555Z,-5.78
2023-02-10T20:58:25.812Z,-5.83
2023-02-10T21:03:30.075Z,-5.96
2023-02-10T21:08:33.634Z,-6.01
2023-02-10T21:13:36.966Z,-5.99
2023-02-10T21:18:40.224Z,-6.07
2023-02-10T21:23:43.220Z,-6.12
2023-02-10T21:28:46.132Z,-6.12
2023-02-10T21:33:48.868Z,-6.24
2023-02-10T21:38:52.176Z,-6.27
2023-02-10T21:43:55.867Z,-6.35
2023-02-10T21:49:00.034Z,-6.27
2023-02-10T21:54:03.671Z,-6.22
2023-02-10T21:59:06.573Z,-6.21
2023-02-10T22:04:10.303Z,-6.18
2023-02-10T22:09:16.542Z,-6.28
2023-02-10T22:14:19.354Z,-6.38
2023-02-10T22:19:22.050Z,-6.33
2023-02-10T22:24:24.946Z,-6.35
2023-02-10T22:29:28.293Z,-6.42
2023-02-10T22:34:30.912Z,-6.34
2023-02-10T22:39:33.754Z,-6.37
2023-02-10T22:44:38.673Z,-6.36
2023-02-10T22:49:41.741Z,-6.38
2023-02-10T22:54:44.672Z,-6.45
2023-02-10T22:59:47.168Z,-6.47
2023-02-10T23:04:49.825Z,-6.47
2023-02-10T23:09:52.819Z,-6.51
2023-02-10T23:14:55.600Z,-6.58
2023-02-10T23:19:58.435Z,-6.56
2023-02-10T23:25:01.663Z,-6.57
2023-02-10T23:30:05.920Z,-6.59
2023-02-10T23:35:08.857Z,-6.70
2023-02-10T23:40:12.005Z,-6.56
2023-02-10T23:45:15.470Z,-6.55
2023-02-10T23:50:18.171Z,-6.59
2023-02-10T23:55:21.247Z,-6.65
